createdAt,value
2023-01-29T00:00:22.040Z,84.91
2023-01-29T00:02:48.711Z,85.03
2023-01-29T00:05:27.083Z,84.90
2023-01-29T00:07:55.330Z,84.65
2023-01-29T00:10:22.262Z,83.90
2023-01-29T00:12:48.843Z,84.01
2023-01-29T00:15:15.432Z,83.26
2023-01-29T00:17:41.984Z,83.88
2023-01-29T00:20:09.413Z,83.36
2023-01-29T00:22:36.709Z,82.71
2023-01-29T00:25:03.323Z,82.64
2023-01-29T00:27:29.876Z,81.89
2023-01-29T00:30:19.319Z,82.54
2023-01-29T00:32:46.222Z,82.77
2023-01-29T00:35:12.844Z,81.94
2023-01-29T00:37:39.485Z,82.62
2023-01-29T00:40:06.480Z,82.92
2023-01-29T00:42:51.794Z,82.92
2023-01-29T00:45:18.445Z,82.71
2023-01-29T00:47:45.566Z,82.76
2023-01-29T00:50:12.988Z,82.35
2023-01-29T00:52:42.958Z,82.63
2023-01-29T00:55:10.552Z,82.10
2023-01-29T00:57:38.736Z,81.49
2023-01-29T01:00:10.669Z,82.10
2023-01-29T01:02:55.983Z,81.72
2023-01-29T01:05:22.782Z,81.46
2023-01-29T01:07:52.406Z,81.33
2023-01-29T01:10:22.288Z,81.09
2023-01-29T01:12:51.647Z,81.44
2023-01-29T01:15:18.828Z,80.90
2023-01-29T01:17:45.682Z,81.08
2023-01-29T01:20:13.131Z,80.97
2023-01-29T01:22:40.379Z,80.91
2023-01-29T01:25:07.418Z,80.30
2023-01-29T01:27:34.809Z,80.33
2023-01-29T01:30:01.568Z,80.74
2023-01-29T01:32:28.695Z,80.77
2023-01-29T01:34:55.298Z,80.05
2023-01-29T01:37:22.489Z,79.70
2023-01-29T01:39:50.611Z,80.16
2023-01-29T01:42:17.247Z,80.45
2023-01-29T01:45:01.315Z,79.74
2023-01-29T01:47:43.210Z,79.70
2023-01-29T01:50:18.785Z,79.28
2023-01-29T01:52:50.256Z,78.42
2023-01-29T01:55:21.648Z,78.59
2023-01-29T01:57:52.889Z,79.09
2023-01-29T02:00:22.065Z,78.60
2023-01-29T02:03:07.730Z,78.15
2023-01-29T02:05:55.160Z,78.46
2023-01-29T02:08:54.553Z,78.53
2023-01-29T02:11:21.149Z,79.08
2023-01-29T02:13:53.478Z,78.40
2023-01-29T02:16:25.299Z,79.01
2023-01-29T02:18:52.409Z,79.06
2023-01-29T02:21:25.001Z,78.88
2023-01-29T02:24:32.830Z,78.64
2023-01-29T02:27:05.811Z,78.46
2023-01-29T02:29:47.835Z,78.37
2023-01-29T02:32:34.821Z,78.12
2023-01-29T02:35:32.022Z,77.98
2023-01-29T02:38:06.453Z,78.65
2023-01-29T02:40:47.074Z,78.78
2023-01-29T02:43:32.467Z,77.93
2023-01-29T02:46:17.784Z,78.72
2023-01-29T02:49:12.559Z,78.27
2023-01-29T02:51:49.729Z,77.93
2023-01-29T02:54:37.785Z,78.46
2023-01-29T02:57:14.850Z,77.01
2023-01-29T02:59:48.919Z,77.85
2023-01-29T03:02:20.829Z,77.19
2023-01-29T03:04:54.729Z,76.72
2023-01-29T03:07:42.377Z,76.45
2023-01-29T03:10:21.713Z,76.63
2023-01-29T03:12:55.665Z,76.47
2023-01-29T03:15:29.694Z,76.23
2023-01-29T03:18:17.714Z,76.29
2023-01-29T03:20:54.366Z,76.00
2023-01-29T03:23:38.149Z,76.52
2023-01-29T03:26:27.388Z,76.00
2023-01-29T03:29:13.360Z,75.66
2023-01-29T03:31:59.960Z,75.29
2023-01-29T03:34:37.010Z,76.23
2023-01-29T03:37:09.252Z,75.39
2023-01-29T03:39:37.011Z,75.79
2023-01-29T03:42:23.799Z,75.41
2023-01-29T03:45:08.505Z,75.83
2023-01-29T03:48:00.469Z,75.54
2023-01-29T03:50:41.867Z,75.29
2023-01-29T03:53:28.097Z,75.44
2023-01-29T03:56:02.415Z,75.08
2023-01-29T03:58:53.391Z,75.53
2023-01-29T04:01:33.403Z,75.88
2023-01-29T04:04:12.208Z,75.69
2023-01-29T04:06:43.146Z,75.44
2023-01-29T04:09:22.113Z,75.84
2023-01-29T04:12:07.263Z,76.03
2023-01-29T04:14:34.114Z,75.46
2023-01-29T04:17:08.892Z,75.34
2023-01-29T04:19:45.541Z,75.05
2023-01-29T04:22:30.421Z,75.00
2023-01-29T04:25:02.494Z,75.43
2023-01-29T04:27:55.416Z,75.83
2023-01-29T04:30:28.056Z,75.44
2023-01-29T04:33:16.601Z,75.50
2023-01-29T04:35:55.412Z,75.97
2023-01-29T04:38:52.203Z,75.46
2023-01-29T04:41:24.735Z,74.71
2023-01-29T04:44:23.378Z,73.89
2023-01-29T04:46:54.517Z,74.10
2023-01-29T04:50:03.833Z,73.96
2023-01-29T04:52:41.509Z,73.33
2023-01-29T04:55:13.706Z,72.70
2023-01-29T04:57:57.248Z,72.86
2023-01-29T05:00:35.516Z,73.34
2023-01-29T05:03:02.895Z,72.27
2023-01-29T05:05:30.899Z,71.38
2023-01-29T05:07:59.110Z,70.69
2023-01-29T05:10:26.673Z,70.38
2023-01-29T05:12:59.889Z,70.28
2023-01-29T05:15:33.674Z,70.77
2023-01-29T05:18:03.055Z,71.11
2023-01-29T05:20:33.875Z,70.95
2023-01-29T05:23:00.674Z,70.81
2023-01-29T05:25:31.025Z,70.01
2023-01-29T05:28:26.824Z,70.34
2023-01-29T05:30:56.508Z,70.38
2023-01-29T05:33:27.312Z,70.06
2023-01-29T05:35:55.270Z,70.18
2023-01-29T05:38:22.724Z,70.04
2023-01-29T05:40:49.497Z,69.91
2023-01-29T05:43:21.482Z,70.66
2023-01-29T05:45:59.360Z,70.33
2023-01-29T05:48:28.894Z,70.47
2023-01-29T05:51:03.724Z,70.10
2023-01-29T05:53:31.019Z,70.58
2023-01-29T05:56:01.835Z,70.69
2023-01-29T05:58:30.909Z,70.54
2023-01-29T06:00:57.922Z,71.04
2023-01-29T06:03:25.039Z,71.06
2023-01-29T06:05:51.577Z,71.11
2023-01-29T06:08:18.174Z,71.49
2023-01-29T06:10:44.723Z,72.35
2023-01-29T06:13:11.392Z,72.28
2023-01-29T06:15:41.215Z,72.92
2023-01-29T06:18:08.348Z,73.86
2023-01-29T06:20:34.937Z,73.87
2023-01-29T06:23:01.588Z,74.42
2023-01-29T06:25:28.219Z,73.88
2023-01-29T06:27:55.174Z,74.23
2023-01-29T06:30:22.620Z,74.31
2023-01-29T06:32:49.153Z,74.12
2023-01-29T06:35:15.790Z,74.33
2023-01-29T06:37:42.547Z,74.53
2023-01-29T06:40:09.953Z,73.46
2023-01-29T06:42:36.533Z,73.03
2023-01-29T06:45:03.364Z,72.17
2023-01-29T06:47:29.948Z,71.53
2023-01-29T06:49:56.546Z,70.79
2023-01-29T06:52:23.107Z,71.10
2023-01-29T06:54:49.711Z,71.23
2023-01-29T06:57:16.255Z,70.61
2023-01-29T06:59:42.874Z,69.79
2023-01-29T07:02:09.585Z,69.69
2023-01-29T07:04:37.736Z,70.22
2023-01-29T07:07:04.390Z,70.66
2023-01-29T07:09:31.296Z,70.56
2023-01-29T07:11:57.883Z,70.29
2023-01-29T07:14:24.413Z,69.71
2023-01-29T07:16:51.130Z,69.59
2023-01-29T07:19:17.680Z,69.72
2023-01-29T07:21:44.311Z,69.21
2023-01-29T07:24:10.905Z,68.51
2023-01-29T07:26:37.523Z,69.00
2023-01-29T07:29:05.166Z,68.10
2023-01-29T07:31:31.868Z,68.23
2023-01-29T07:33:58.469Z,68.22
2023-01-29T07:36:25.193Z,67.58
2023-01-29T07:38:51.856Z,67.30
2023-01-29T07:41:18.898Z,67.03
2023-01-29T07:43:46.641Z,66.60
2023-01-29T07:46:13.321Z,66.55
2023-01-29T07:48:39.927Z,66.49
2023-01-29T07:51:06.825Z,65.87
2023-01-29T07:53:33.485Z,66.24
2023-01-29T07:56:00.132Z,66.04
2023-01-29T07:58:26.773Z,64.92
2023-01-29T08:00:53.370Z,64.88
2023-01-29T08:03:20.783Z,65.99
2023-01-29T08:05:48.366Z,66.76
2023-01-29T08:08:15.291Z,64.77
2023-01-29T08:10:42.257Z,64.30
2023-01-29T08:13:09.171Z,64.47
2023-01-29T08:15:38.018Z,63.33
2023-01-29T08:18:06.507Z,64.19
2023-01-29T08:20:33.438Z,64.65
2023-01-29T08:23:05.135Z,63.11
2023-01-29T08:25:32.823Z,62.92
2023-01-29T08:28:00.792Z,63.16
2023-01-29T08:30:30.012Z,63.40
2023-01-29T08:32:56.617Z,61.73
2023-01-29T08:35:24.030Z,62.14
2023-01-29T08:37:59.409Z,62.60
2023-01-29T08:40:27.685Z,63.79
2023-01-29T08:43:02.973Z,62.42
2023-01-29T08:45:33.393Z,62.74
2023-01-29T08:48:00.102Z,63.32
2023-01-29T08:50:26.831Z,64.20
2023-01-29T08:52:58.723Z,64.04
2023-01-29T08:55:25.998Z,63.55
2023-01-29T08:57:52.694Z,62.77
2023-01-29T09:00:19.646Z,61.95
2023-01-29T09:02:46.361Z,61.77
2023-01-29T09:05:13.018Z,62.03
2023-01-29T09:07:39.606Z,63.06
2023-01-29T09:10:06.499Z,63.53
2023-01-29T09:12:33.030Z,62.32
2023-01-29T09:14:59.577Z,62.69
2023-01-29T09:17:26.208Z,62.35
2023-01-29T09:19:53.110Z,62.45
2023-01-29T09:22:20.514Z,63.43
2023-01-29T09:24:47.246Z,63.39
2023-01-29T09:27:13.869Z,63.02
2023-01-29T09:29:40.560Z,63.26
2023-01-29T09:32:07.263Z,62.00
2023-01-29T09:34:34.313Z,61.06
2023-01-29T09:37:00.882Z,61.94
2023-01-29T09:39:27.651Z,62.83
2023-01-29T09:42:12.590Z,62.48
2023-01-29T09:45:13.256Z,61.89
2023-01-29T09:47:40.137Z,61.05
2023-01-29T09:50:15.748Z,61.36
2023-01-29T09:52:56.246Z,61.49
2023-01-29T09:55:27.109Z,62.22
2023-01-29T09:57:57.838Z,61.29
2023-01-29T10:00:58.834Z,60.59
2023-01-29T10:03:34.715Z,61.62
2023-01-29T10:06:20.590Z,60.68
2023-01-29T10:09:19.543Z,60.39
2023-01-29T10:12:08.641Z,60.99
2023-01-29T10:15:12.974Z,60.60
2023-01-29T10:17:58.375Z,60.16
2023-01-29T10:20:39.508Z,60.95
2023-01-29T10:23:14.912Z,61.67
2023-01-29T10:25:42.931Z,61.56
2023-01-29T10:28:20.518Z,61.34
2023-01-29T10:30:54.944Z,62.18
2023-01-29T10:33:48.764Z,61.44
2023-01-29T10:36:22.788Z,62.24
2023-01-29T10:38:51.083Z,62.05
2023-01-29T10:41:20.335Z,62.31
2023-01-29T10:43:49.651Z,61.33
2023-01-29T10:46:47.509Z,61.68
2023-01-29T10:49:39.246Z,61.84
2023-01-29T10:52:16.136Z,62.23
2023-01-29T10:54:51.236Z,60.27
2023-01-29T10:57:45.863Z,60.76
2023-01-29T11:00:28.572Z,61.83
2023-01-29T11:02:55.118Z,61.25
2023-01-29T11:05:51.374Z,61.90
2023-01-29T11:08:39.097Z,61.81
2023-01-29T11:11:17.260Z,60.91
2023-01-29T11:13:52.613Z,61.75
2023-01-29T11:16:19.190Z,61.63
2023-01-29T11:18:57.428Z,62.81
2023-01-29T11:21:26.085Z,61.46
2023-01-29T11:24:07.061Z,61.29
2023-01-29T11:26:38.494Z,61.71
2023-01-29T11:29:05.295Z,61.77
2023-01-29T11:31:40.693Z,62.25
2023-01-29T11:34:19.469Z,61.98
2023-01-29T11:36:46.861Z,61.80
2023-01-29T11:39:21.399Z,62.21
2023-01-29T11:42:02.781Z,61.62
2023-01-29T11:44:33.281Z,62.13
2023-01-29T11:47:13.324Z,61.74
2023-01-29T11:49:46.862Z,61.84
2023-01-29T11:52:16.335Z,62.09
2023-01-29T11:54:52.592Z,61.33
2023-01-29T11:57:26.507Z,60.75
2023-01-29T11:59:55.626Z,61.29
2023-01-29T12:02:31.516Z,61.88
2023-01-29T12:05:02.212Z,62.13
2023-01-29T12:07:29.617Z,61.83
2023-01-29T12:10:00.200Z,61.23
2023-01-29T12:12:29.722Z,61.08
2023-01-29T12:15:08.571Z,61.08
2023-01-29T12:17:39.004Z,60.26
2023-01-29T12:20:15.467Z,60.53
2023-01-29T12:22:48.861Z,61.16
2023-01-29T12:25:25.975Z,61.57
2023-01-29T12:28:09.195Z,61.47
2023-01-29T12:30:54.739Z,61.33
2023-01-29T12:33:37.144Z,61.27
2023-01-29T12:36:12.529Z,61.47
2023-01-29T12:38:40.992Z,61.53
2023-01-29T12:41:30.124Z,61.79
2023-01-29T12:44:02.969Z,62.29
2023-01-29T12:46:34.660Z,61.98
2023-01-29T12:49:07.385Z,62.08
2023-01-29T12:51:40.813Z,61.68
2023-01-29T12:54:12.979Z,62.25
2023-01-29T12:56:47.194Z,62.76
2023-01-29T12:59:22.639Z,62.53
2023-01-29T13:02:04.622Z,62.20
2023-01-29T13:04:42.312Z,62.63
2023-01-29T13:07:19.467Z,63.67
2023-01-29T13:09:53.313Z,63.21
2023-01-29T13:12:23.121Z,63.72
2023-01-29T13:15:28.439Z,62.90
2023-01-29T13:18:02.123Z,62.14
2023-01-29T13:20:32.168Z,62.08
2023-01-29T13:23:20.563Z,62.08
2023-01-29T13:25:51.409Z,61.76
2023-01-29T13:28:21.013Z,62.24
2023-01-29T13:30:47.952Z,62.70
2023-01-29T13:33:23.669Z,63.10
2023-01-29T13:35:59.427Z,62.82
2023-01-29T13:38:33.333Z,62.68
2023-01-29T13:41:08.733Z,63.08
2023-01-29T13:43:41.959Z,63.21
2023-01-29T13:46:12.372Z,63.32
2023-01-29T13:48:46.739Z,61.90
2023-01-29T13:51:20.017Z,61.79
2023-01-29T13:53:53.529Z,62.46
2023-01-29T13:56:35.091Z,62.52
2023-01-29T13:59:05.455Z,63.06
2023-01-29T14:01:47.277Z,62.96
2023-01-29T14:04:21.658Z,64.04
2023-01-29T14:06:52.342Z,64.09
2023-01-29T14:09:34.274Z,63.63
2023-01-29T14:12:00.995Z,63.61
2023-01-29T14:14:49.660Z,63.50
2023-01-29T14:17:18.507Z,63.40
2023-01-29T14:19:53.493Z,63.66
2023-01-29T14:22:27.059Z,63.73
2023-01-29T14:24:57.889Z,63.59
2023-01-29T14:27:25.784Z,64.24
2023-01-29T14:30:00.840Z,63.40
2023-01-29T14:32:27.933Z,64.09
2023-01-29T14:35:03.480Z,64.55
2023-01-29T14:37:36.638Z,64.46
2023-01-29T14:40:12.307Z,64.73
2023-01-29T14:42:44.011Z,64.27
2023-01-29T14:45:22.389Z,65.63
2023-01-29T14:47:48.882Z,65.33
2023-01-29T14:50:35.796Z,65.43
2023-01-29T14:53:10.468Z,64.93
2023-01-29T14:56:09.961Z,65.54
2023-01-29T14:58:52.613Z,65.86
2023-01-29T15:01:34.309Z,66.34
2023-01-29T15:04:15.033Z,66.70
2023-01-29T15:06:46.631Z,66.85
2023-01-29T15:09:17.882Z,66.98
2023-01-29T15:11:56.020Z,67.38
2023-01-29T15:14:26.156Z,67.28
2023-01-29T15:17:28.747Z,67.72
2023-01-29T15:19:56.740Z,66.86
2023-01-29T15:22:29.837Z,67.04
2023-01-29T15:25:05.080Z,67.25
2023-01-29T15:27:32.091Z,67.07
2023-01-29T15:30:01.533Z,67.01
2023-01-29T15:32:36.026Z,66.99
2023-01-29T15:35:08.813Z,66.72
2023-01-29T15:37:36.531Z,66.68
2023-01-29T15:40:06.887Z,67.04
2023-01-29T15:42:48.605Z,66.78
2023-01-29T15:45:31.141Z,67.59
2023-01-29T15:48:03.846Z,67.05
2023-01-29T15:50:32.894Z,67.44
2023-01-29T15:53:04.097Z,68.44
2023-01-29T15:55:31.754Z,67.94
2023-01-29T15:57:59.883Z,68.68
2023-01-29T16:00:29.569Z,69.29
2023-01-29T16:02:58.021Z,70.47
2023-01-29T16:05:28.853Z,70.19
2023-01-29T16:07:57.241Z,70.24
2023-01-29T16:10:30.055Z,70.47
2023-01-29T16:12:57.851Z,71.01
2023-01-29T16:15:34.480Z,71.16
2023-01-29T16:18:04.698Z,71.45
2023-01-29T16:20:45.156Z,71.28
2023-01-29T16:23:21.413Z,71.65
2023-01-29T16:25:49.810Z,72.22
2023-01-29T16:28:17.699Z,72.46
2023-01-29T16:30:44.456Z,72.93
2023-01-29T16:33:17.039Z,73.31
2023-01-29T16:35:50.254Z,73.77
2023-01-29T16:38:28.427Z,73.61
2023-01-29T16:41:15.615Z,74.07
2023-01-29T16:43:55.113Z,74.31
2023-01-29T16:46:26.576Z,74.54
2023-01-29T16:48:53.964Z,74.61
2023-01-29T16:51:36.966Z,74.78
2023-01-29T16:54:12.543Z,75.04
2023-01-29T16:56:39.902Z,74.96
2023-01-29T16:59:07.217Z,74.89
2023-01-29T17:01:36.356Z,75.15
2023-01-29T17:04:10.305Z,75.74
2023-01-29T17:06:38.036Z,76.08
2023-01-29T17:09:06.066Z,76.49
2023-01-29T17:11:34.639Z,76.82
2023-01-29T17:14:01.527Z,76.86
2023-01-29T17:16:37.532Z,77.11
2023-01-29T17:19:17.478Z,77.66
2023-01-29T17:21:44.137Z,77.93
2023-01-29T17:24:10.710Z,78.14
2023-01-29T17:26:37.618Z,78.15
2023-01-29T17:29:04.398Z,78.42
2023-01-29T17:31:31.093Z,78.52
2023-01-29T17:33:57.685Z,78.74
2023-01-29T17:36:24.403Z,78.48
2023-01-29T17:38:50.971Z,78.84
2023-01-29T17:41:30.330Z,78.81
2023-01-29T17:43:56.986Z,78.83
2023-01-29T17:46:23.528Z,79.38
2023-01-29T17:48:50.354Z,79.55
2023-01-29T17:51:17.932Z,79.80
2023-01-29T17:53:46.971Z,79.89
2023-01-29T17:56:21.342Z,79.96
2023-01-29T17:58:48.028Z,80.05
2023-01-29T18:01:14.986Z,80.15
2023-01-29T18:03:41.777Z,79.84
2023-01-29T18:06:09.668Z,79.64
2023-01-29T18:08:38.571Z,79.17
2023-01-29T18:11:06.127Z,79.49
2023-01-29T18:13:32.747Z,79.62
2023-01-29T18:15:59.531Z,79.33
2023-01-29T18:18:26.183Z,79.78
2023-01-29T18:20:53.492Z,79.72
2023-01-29T18:23:20.140Z,79.86
2023-01-29T18:25:46.843Z,79.48
2023-01-29T18:28:16.993Z,79.63
2023-01-29T18:30:46.989Z,79.80
2023-01-29T18:33:14.610Z,79.91
2023-01-29T18:35:41.284Z,79.55
2023-01-29T18:38:07.904Z,79.95
2023-01-29T18:40:34.587Z,79.97
2023-01-29T18:43:01.285Z,79.91
2023-01-29T18:45:28.941Z,79.75
2023-01-29T18:47:55.911Z,80.04
2023-01-29T18:50:26.366Z,80.13
2023-01-29T18:52:53.943Z,80.89
2023-01-29T18:55:21.113Z,81.59
2023-01-29T18:58:27.338Z,82.05
2023-01-29T19:00:34.751Z,82.47
2023-01-29T19:03:01.565Z,83.36
2023-01-29T19:05:28.146Z,83.92
2023-01-29T19:07:54.935Z,84.08
2023-01-29T19:10:21.543Z,84.61
2023-01-29T19:12:48.085Z,84.95
2023-01-29T19:15:16.258Z,85.24
2023-01-29T19:17:43.276Z,85.93
2023-01-29T19:20:11.105Z,86.43
2023-01-29T19:22:39.303Z,87.79
2023-01-29T19:25:06.407Z,88.96
2023-01-29T19:27:33.247Z,90.01
2023-01-29T19:29:59.999Z,91.17
2023-01-29T19:32:29.005Z,91.82
2023-01-29T19:34:55.689Z,92.56
2023-01-29T19:37:22.344Z,92.86
2023-01-29T19:39:48.951Z,93.09
2023-01-29T19:42:16.021Z,93.38
2023-01-29T19:44:42.864Z,93.08
2023-01-29T19:47:09.557Z,93.59
2023-01-29T19:49:36.366Z,94.04
2023-01-29T19:52:03.252Z,93.66
2023-01-29T19:54:30.441Z,93.83
2023-01-29T19:56:57.080Z,94.29
2023-01-29T19:59:23.894Z,94.09
2023-01-29T20:01:50.693Z,93.71
2023-01-29T20:04:17.413Z,93.46
2023-01-29T20:06:44.575Z,93.34
2023-01-29T20:09:11.293Z,93.27
2023-01-29T20:11:37.887Z,93.20
2023-01-29T20:14:04.545Z,93.19
2023-01-29T20:16:31.189Z,93.38
2023-01-29T20:19:13.667Z,93.48
2023-01-29T20:21:45.947Z,93.67
2023-01-29T20:24:13.238Z,94.01
2023-01-29T20:26:40.354Z,94.28
2023-01-29T20:29:06.932Z,94.25
2023-01-29T20:31:33.866Z,94.19
2023-01-29T20:34:00.556Z,93.45
2023-01-29T20:36:27.132Z,94.23
2023-01-29T20:38:53.684Z,94.38
2023-01-29T20:41:21.206Z,94.33
2023-01-29T20:43:50.215Z,94.42
2023-01-29T20:46:17.102Z,93.76
2023-01-29T20:48:43.855Z,93.37
2023-01-29T20:51:16.766Z,93.10
2023-01-29T20:53:45.493Z,92.61
2023-01-29T20:56:14.585Z,92.27
2023-01-29T20:58:41.467Z,92.43
2023-01-29T21:01:13.645Z,92.45
2023-01-29T21:03:40.505Z,92.64
2023-01-29T21:06:09.459Z,92.98
2023-01-29T21:08:37.390Z,93.33
2023-01-29T21:11:05.933Z,92.96
2023-01-29T21:13:32.716Z,93.27
2023-01-29T21:15:59.798Z,92.67
2023-01-29T21:18:26.458Z,92.98
2023-01-29T21:20:53.811Z,93.17
2023-01-29T21:23:21.114Z,92.86
2023-01-29T21:25:48.170Z,92.69
2023-01-29T21:28:15.658Z,92.56
2023-01-29T21:30:42.336Z,92.80
2023-01-29T21:33:09.057Z,93.40
2023-01-29T21:35:37.728Z,93.62
2023-01-29T21:38:04.567Z,93.99
2023-01-29T21:40:31.241Z,94.48
2023-01-29T21:43:12.976Z,95.03
2023-01-29T21:45:40.533Z,95.89
2023-01-29T21:48:08.120Z,96.03
2023-01-29T21:50:34.788Z,95.56
2023-01-29T21:53:01.469Z,95.62
2023-01-29T21:55:28.146Z,96.20
2023-01-29T21:57:55.629Z,96.07
2023-01-29T22:00:22.519Z,95.82
2023-01-29T22:02:50.188Z,95.86
2023-01-29T22:05:19.709Z,96.16
2023-01-29T22:07:47.883Z,96.47
2023-01-29T22:10:15.604Z,96.56
2023-01-29T22:12:43.026Z,96.73
2023-01-29T22:15:10.255Z,96.82
2023-01-29T22:17:38.540Z,97.01
2023-01-29T22:20:06.424Z,96.52
2023-01-29T22:22:32.971Z,96.09
2023-01-29T22:24:59.585Z,95.57
2023-01-29T22:27:26.145Z,95.02
2023-01-29T22:29:52.702Z,94.79
2023-01-29T22:32:19.293Z,94.37
2023-01-29T22:34:45.874Z,94.13
2023-01-29T22:37:12.450Z,94.26
2023-01-29T22:39:39.062Z,94.75
2023-01-29T22:42:05.648Z,94.83
2023-01-29T22:44:32.246Z,95.67
2023-01-29T22:46:58.873Z,95.73
2023-01-29T22:49:26.359Z,95.17
2023-01-29T22:52:09.990Z,95.14
2023-01-29T22:54:41.259Z,95.31
2023-01-29T22:57:10.646Z,95.32
2023-01-29T22:59:37.548Z,95.69
2023-01-29T23:02:04.506Z,95.62
2023-01-29T23:04:31.222Z,95.93
2023-01-29T23:06:57.854Z,95.89
2023-01-29T23:09:24.536Z,95.94
2023-01-29T23:11:51.185Z,96.14
2023-01-29T23:14:17.872Z,96.55
2023-01-29T23:16:44.447Z,96.39
2023-01-29T23:19:12.168Z,96.57
2023-01-29T23:21:39.775Z,96.89
2023-01-29T23:24:07.789Z,97.29
2023-01-29T23:26:53.345Z,97.99
2023-01-29T23:29:20.038Z,97.98
2023-01-29T23:31:46.653Z,98.20
2023-01-29T23:34:14.018Z,98.86
2023-01-29T23:36:41.026Z,99.00
2023-01-29T23:39:07.780Z,99.38
2023-01-29T23:41:34.526Z,100.00
2023-01-29T23:44:01.214Z,100.00
2023-01-29T23:46:27.920Z,100.00
2023-01-29T23:48:54.610Z,100.00
2023-01-29T23:51:21.171Z,100.00
2023-01-29T23:53:47.722Z,100.00
2023-01-29T23:56:14.285Z,100.00
2023-01-29T23:58:40.930Z,100.00
